createdAt,value
2024-01-09T00:00:53.151Z,5.47
2024-01-09T00:03:20.830Z,4.40
2024-01-09T00:05:48.614Z,3.73
2024-01-09T00:08:16.401Z,5.10
2024-01-09T00:10:43.965Z,4.93
2024-01-09T00:13:11.653Z,5.03
2024-01-09T00:15:39.260Z,4.30
2024-01-09T00:18:07.035Z,5.93
2024-01-09T00:20:34.708Z,5.60
2024-01-09T00:23:02.443Z,5.07
2024-01-09T00:25:30.224Z,4.17
2024-01-09T00:27:57.815Z,5.07
2024-01-09T00:30:25.503Z,3.70
2024-01-09T00:32:53.313Z,4.07
2024-01-09T00:35:21.076Z,4.23
2024-01-09T00:37:48.781Z,4.47
2024-01-09T00:40:16.388Z,4.73
2024-01-09T00:42:44.030Z,5.40
2024-01-09T00:45:12.080Z,3.73
2024-01-09T00:47:39.830Z,5.60
2024-01-09T00:50:07.744Z,4.40
2024-01-09T00:52:35.400Z,4.20
2024-01-09T00:55:02.975Z,3.80
2024-01-09T00:57:30.635Z,5.17
2024-01-09T00:59:58.194Z,4.57
2024-01-09T01:02:25.948Z,4.93
2024-01-09T01:04:53.598Z,3.80
2024-01-09T01:07:21.258Z,4.53
2024-01-09T01:09:48.832Z,5.00
2024-01-09T01:12:16.438Z,4.20
2024-01-09T01:14:44.123Z,3.87
2024-01-09T01:17:11.906Z,3.40
2024-01-09T01:19:39.558Z,5.37
2024-01-09T01:22:07.215Z,4.03
2024-01-09T01:24:34.759Z,5.23
2024-01-09T01:27:02.374Z,4.87
2024-01-09T01:29:30.037Z,4.67
2024-01-09T01:31:57.636Z,3.47
2024-01-09T01:34:25.287Z,5.10
2024-01-09T01:36:52.983Z,3.27
2024-01-09T01:39:20.562Z,4.67
2024-01-09T01:41:48.239Z,5.40
2024-01-09T01:44:18.095Z,6.07
2024-01-09T01:46:47.228Z,4.43
2024-01-09T01:49:16.157Z,3.47
2024-01-09T01:51:44.719Z,4.27
2024-01-09T01:54:15.556Z,3.40
2024-01-09T01:56:43.777Z,3.60
2024-01-09T01:59:12.445Z,4.40
2024-01-09T02:01:40.162Z,3.77
2024-01-09T02:04:09.108Z,4.40
2024-01-09T02:06:37.006Z,4.03
2024-01-09T02:09:04.661Z,3.07
2024-01-09T02:11:32.949Z,3.93
2024-01-09T02:14:00.524Z,4.63
2024-01-09T02:16:28.239Z,3.37
2024-01-09T02:18:55.884Z,3.50
2024-01-09T02:21:23.700Z,3.63
2024-01-09T02:23:51.380Z,3.97
2024-01-09T02:26:39.593Z,3.70
2024-01-09T02:29:10.917Z,4.43
2024-01-09T02:31:38.859Z,4.40
2024-01-09T02:34:08.397Z,4.13
2024-01-09T02:36:36.779Z,4.27
2024-01-09T02:39:04.404Z,4.13
2024-01-09T02:41:35.978Z,4.57
2024-01-09T02:44:03.770Z,2.57
2024-01-09T02:46:31.699Z,4.17
2024-01-09T02:48:59.318Z,3.70
2024-01-09T02:51:26.942Z,3.90
2024-01-09T02:53:54.766Z,4.30
2024-01-09T02:56:22.537Z,3.57
2024-01-09T02:58:50.249Z,3.33
2024-01-09T03:01:17.998Z,2.63
2024-01-09T03:03:45.702Z,3.90
2024-01-09T03:06:13.486Z,4.87
2024-01-09T03:08:41.204Z,3.13
2024-01-09T03:11:08.924Z,3.47
2024-01-09T03:13:36.607Z,3.77
2024-01-09T03:16:13.013Z,2.60
2024-01-09T03:18:41.115Z,4.17
2024-01-09T03:21:08.838Z,3.00
2024-01-09T03:23:36.568Z,4.20
2024-01-09T03:26:04.218Z,3.70
2024-01-09T03:28:31.922Z,3.93
2024-01-09T03:30:59.564Z,4.07
2024-01-09T03:33:27.421Z,3.83
2024-01-09T03:35:55.170Z,3.67
2024-01-09T03:38:22.827Z,3.63
2024-01-09T03:40:51.439Z,4.73
2024-01-09T03:43:19.100Z,4.30
2024-01-09T03:45:46.646Z,4.50
2024-01-09T03:48:14.373Z,3.40
2024-01-09T03:50:42.015Z,4.53
2024-01-09T03:53:09.671Z,4.50
2024-01-09T03:55:37.258Z,3.37
2024-01-09T03:58:05.000Z,3.70
2024-01-09T04:00:32.591Z,3.93
2024-01-09T04:03:00.215Z,3.23
2024-01-09T04:05:27.816Z,4.60
2024-01-09T04:07:55.519Z,4.87
2024-01-09T04:10:23.095Z,3.37
2024-01-09T04:12:50.756Z,3.53
2024-01-09T04:15:18.425Z,3.23
2024-01-09T04:17:46.234Z,3.53
2024-01-09T04:20:14.217Z,4.60
2024-01-09T04:22:41.818Z,3.80
2024-01-09T04:25:09.822Z,3.17
2024-01-09T04:27:37.517Z,4.27
2024-01-09T04:30:05.303Z,3.60
2024-01-09T04:32:33.068Z,2.53
2024-01-09T04:35:00.730Z,3.23
2024-01-09T04:37:28.349Z,4.37
2024-01-09T04:39:55.938Z,3.47
2024-01-09T04:42:23.677Z,3.23
2024-01-09T04:44:51.334Z,4.43
2024-01-09T04:47:19.066Z,3.50
2024-01-09T04:49:46.700Z,3.10
2024-01-09T04:52:14.301Z,4.30
2024-01-09T04:54:41.924Z,2.67
2024-01-09T04:57:09.703Z,3.13
2024-01-09T04:59:37.316Z,4.40
2024-01-09T05:02:05.067Z,3.63
2024-01-09T05:04:32.709Z,3.00
2024-01-09T05:07:00.372Z,3.07
2024-01-09T05:09:27.951Z,4.33
2024-01-09T05:11:55.630Z,5.00
2024-01-09T05:14:23.293Z,4.80
2024-01-09T05:16:51.013Z,4.70
2024-01-09T05:19:18.651Z,3.47
2024-01-09T05:21:46.284Z,4.23
2024-01-09T05:24:13.895Z,4.53
2024-01-09T05:26:41.528Z,4.27
2024-01-09T05:29:09.130Z,4.57
2024-01-09T05:31:42.670Z,3.20
2024-01-09T05:34:10.448Z,3.77
2024-01-09T05:36:38.092Z,5.33
2024-01-09T05:39:05.693Z,4.63
2024-01-09T05:41:33.418Z,4.70
2024-01-09T05:44:00.960Z,3.63
2024-01-09T05:46:28.678Z,4.20
2024-01-09T05:48:56.410Z,3.63
2024-01-09T05:51:24.145Z,3.83
2024-01-09T05:53:51.962Z,3.80
2024-01-09T05:56:19.759Z,5.57
2024-01-09T05:58:47.369Z,4.57
2024-01-09T06:01:15.057Z,4.40
2024-01-09T06:03:42.781Z,5.60
2024-01-09T06:06:10.582Z,3.90
2024-01-09T06:08:38.247Z,3.70
2024-01-09T06:11:05.907Z,5.00
2024-01-09T06:13:33.500Z,3.97
2024-01-09T06:16:01.135Z,4.40
2024-01-09T06:18:28.857Z,4.37
2024-01-09T06:20:56.703Z,6.37
2024-01-09T06:23:24.299Z,4.23
2024-01-09T06:25:51.972Z,4.80
2024-01-09T06:28:19.611Z,2.80
2024-01-09T06:30:47.230Z,4.20
2024-01-09T06:33:14.999Z,4.67
2024-01-09T06:35:42.857Z,4.57
2024-01-09T06:38:10.588Z,5.33
2024-01-09T06:40:38.176Z,5.50
2024-01-09T06:43:05.898Z,4.93
2024-01-09T06:45:34.175Z,5.27
2024-01-09T06:48:02.285Z,4.50
2024-01-09T06:50:37.110Z,4.73
2024-01-09T06:53:06.108Z,4.57
2024-01-09T06:55:33.800Z,4.73
2024-01-09T06:58:01.397Z,5.60
2024-01-09T07:00:28.956Z,4.13
2024-01-09T07:02:56.653Z,4.23
2024-01-09T07:05:24.363Z,4.50
2024-01-09T07:07:52.117Z,5.10
2024-01-09T07:10:19.736Z,4.60
2024-01-09T07:12:47.392Z,6.33
2024-01-09T07:15:15.298Z,5.00
2024-01-09T07:17:43.908Z,4.60
2024-01-09T07:20:11.899Z,4.50
2024-01-09T07:22:39.932Z,5.90
2024-01-09T07:25:08.225Z,4.33
2024-01-09T07:27:36.352Z,4.20
2024-01-09T07:30:04.296Z,5.13
2024-01-09T07:32:32.076Z,5.70
2024-01-09T07:34:59.970Z,5.77
2024-01-09T07:37:27.686Z,5.30
2024-01-09T07:39:55.341Z,5.13
2024-01-09T07:42:23.044Z,4.07
2024-01-09T07:44:50.690Z,5.50
2024-01-09T07:47:18.390Z,4.17
2024-01-09T07:49:46.069Z,5.40
2024-01-09T07:52:13.711Z,6.07
2024-01-09T07:54:44.033Z,5.00
2024-01-09T07:57:21.492Z,5.27
2024-01-09T07:59:50.492Z,5.33
2024-01-09T08:02:21.244Z,6.80
2024-01-09T08:04:48.921Z,6.10
2024-01-09T08:07:16.522Z,5.30
2024-01-09T08:09:44.276Z,5.30
2024-01-09T08:12:11.804Z,6.10
2024-01-09T08:14:39.512Z,6.70
2024-01-09T08:17:07.074Z,5.10
2024-01-09T08:19:34.740Z,5.53
2024-01-09T08:22:02.333Z,7.07
2024-01-09T08:24:29.906Z,5.80
2024-01-09T08:26:57.649Z,6.10
2024-01-09T08:29:25.287Z,6.27
2024-01-09T08:31:52.957Z,7.00
2024-01-09T08:34:20.686Z,6.73
2024-01-09T08:36:48.303Z,6.13
2024-01-09T08:39:16.015Z,4.40
2024-01-09T08:41:43.767Z,6.27
2024-01-09T08:44:11.431Z,6.90
2024-01-09T08:46:39.012Z,7.63
2024-01-09T08:49:06.803Z,6.77
2024-01-09T08:51:34.410Z,7.27
2024-01-09T08:54:02.128Z,6.93
2024-01-09T08:56:29.745Z,7.17
2024-01-09T08:58:57.344Z,7.10
2024-01-09T09:01:25.021Z,7.30
2024-01-09T09:03:52.694Z,5.07
2024-01-09T09:06:20.643Z,5.90
2024-01-09T09:08:48.331Z,5.43
2024-01-09T09:11:16.168Z,6.20
2024-01-09T09:13:44.372Z,6.50
2024-01-09T09:16:12.055Z,7.43
2024-01-09T09:18:40.012Z,6.90
2024-01-09T09:21:08.114Z,7.00
2024-01-09T09:23:35.738Z,6.07
2024-01-09T09:26:03.487Z,6.77
2024-01-09T09:28:37.325Z,9.13
2024-01-09T09:31:13.115Z,7.03
2024-01-09T09:33:42.908Z,6.40
2024-01-09T09:36:11.174Z,7.67
2024-01-09T09:38:38.931Z,8.10
2024-01-09T09:41:07.425Z,7.27
2024-01-09T09:43:35.504Z,7.27
2024-01-09T09:46:06.299Z,7.90
2024-01-09T09:48:35.180Z,5.97
2024-01-09T09:51:02.999Z,6.33
2024-01-09T09:53:30.666Z,5.70
2024-01-09T09:55:58.393Z,7.13
2024-01-09T09:58:26.069Z,5.80
2024-01-09T10:00:54.902Z,7.73
2024-01-09T10:03:24.125Z,6.80
2024-01-09T10:05:53.085Z,4.77
2024-01-09T10:08:21.843Z,7.10
2024-01-09T10:10:49.450Z,7.43
2024-01-09T10:13:17.036Z,4.77
2024-01-09T10:16:00.512Z,6.27
2024-01-09T10:18:31.983Z,4.00
2024-01-09T10:21:00.203Z,5.27
2024-01-09T10:23:28.193Z,4.57
2024-01-09T10:25:58.926Z,7.27
2024-01-09T10:28:26.558Z,4.73
2024-01-09T10:30:54.760Z,6.40
2024-01-09T10:33:22.610Z,6.03
2024-01-09T10:35:50.938Z,6.73
2024-01-09T10:38:24.806Z,7.90
2024-01-09T10:40:52.561Z,4.77
2024-01-09T10:43:20.442Z,5.40
2024-01-09T10:45:48.025Z,7.60
2024-01-09T10:48:15.734Z,7.33
2024-01-09T10:50:43.562Z,6.43
2024-01-09T10:53:12.592Z,6.23
2024-01-09T10:55:40.517Z,6.17
2024-01-09T10:58:09.785Z,4.80
2024-01-09T11:00:38.166Z,7.30
2024-01-09T11:03:06.765Z,5.20
2024-01-09T11:05:34.629Z,5.97
2024-01-09T11:08:05.513Z,4.63
2024-01-09T11:10:33.915Z,6.83
2024-01-09T11:13:02.461Z,5.57
2024-01-09T11:15:31.881Z,7.43
2024-01-09T11:18:05.471Z,5.87
2024-01-09T11:20:33.760Z,5.43
2024-01-09T11:23:01.286Z,6.13
2024-01-09T11:25:29.081Z,4.20
2024-01-09T11:27:56.807Z,5.57
2024-01-09T11:30:26.472Z,6.30
2024-01-09T11:32:54.234Z,7.67
2024-01-09T11:35:22.263Z,7.33
2024-01-09T11:37:51.140Z,8.03
2024-01-09T11:40:20.115Z,5.40
2024-01-09T11:42:48.954Z,6.90
2024-01-09T11:45:23.790Z,5.27
2024-01-09T11:47:52.131Z,6.57
2024-01-09T11:50:19.863Z,4.50
2024-01-09T11:52:49.015Z,4.67
2024-01-09T11:55:16.817Z,4.13
2024-01-09T11:57:45.144Z,6.53
2024-01-09T12:00:12.900Z,6.50
2024-01-09T12:02:40.691Z,5.70
2024-01-09T12:05:09.000Z,4.60
2024-01-09T12:07:41.036Z,5.43
2024-01-09T12:10:17.058Z,7.27
2024-01-09T12:12:53.746Z,5.30
2024-01-09T12:15:21.360Z,4.87
2024-01-09T12:17:57.526Z,6.57
2024-01-09T12:20:25.686Z,5.20
2024-01-09T12:22:53.569Z,5.43
2024-01-09T12:25:21.751Z,4.30
2024-01-09T12:27:49.455Z,5.93
2024-01-09T12:30:17.200Z,4.60
2024-01-09T12:32:44.942Z,5.90
2024-01-09T12:35:13.071Z,5.07
2024-01-09T12:37:40.703Z,4.40
2024-01-09T12:40:08.577Z,6.23
2024-01-09T12:42:36.126Z,4.23
2024-01-09T12:45:04.048Z,4.33
2024-01-09T12:47:31.649Z,6.70
2024-01-09T12:50:04.243Z,5.07
2024-01-09T12:52:33.870Z,4.47
2024-01-09T12:55:04.875Z,4.83
2024-01-09T12:57:33.539Z,4.67
2024-01-09T13:00:01.840Z,4.77
2024-01-09T13:02:30.197Z,4.90
2024-01-09T13:04:57.905Z,5.10
2024-01-09T13:07:25.566Z,4.17
2024-01-09T13:09:53.210Z,3.57
2024-01-09T13:12:20.913Z,5.50
2024-01-09T13:14:48.585Z,3.73
2024-01-09T13:17:16.218Z,5.07
2024-01-09T13:19:43.795Z,4.87
2024-01-09T13:23:46.351Z,4.90
2024-01-09T13:24:59.455Z,3.80
2024-01-09T13:27:27.462Z,3.60
2024-01-09T13:32:25.829Z,3.60
2024-01-09T13:34:53.490Z,4.07
2024-01-09T13:37:21.271Z,4.03
2024-01-09T13:39:48.822Z,3.97
2024-01-09T13:42:16.370Z,3.87
2024-01-09T13:44:44.353Z,3.50
2024-01-09T13:47:11.964Z,3.03
2024-01-09T13:51:41.370Z,3.67
2024-01-09T13:52:27.302Z,4.60
2024-01-09T13:54:54.959Z,3.90
2024-01-09T13:57:22.570Z,3.60
2024-01-09T13:59:50.112Z,3.17
2024-01-09T14:02:17.806Z,3.10
2024-01-09T14:04:45.527Z,3.07
2024-01-09T14:07:13.171Z,4.60
2024-01-09T14:09:40.723Z,4.70
2024-01-09T14:12:09.662Z,3.83
2024-01-09T14:14:37.270Z,4.20
2024-01-09T14:17:05.420Z,4.23
2024-01-09T14:19:33.066Z,2.93
2024-01-09T14:22:00.841Z,4.03
2024-01-09T14:24:28.396Z,3.50
2024-01-09T14:26:56.060Z,3.83
2024-01-09T14:29:23.644Z,3.60
2024-01-09T14:31:51.418Z,4.70
2024-01-09T14:34:19.142Z,4.07
2024-01-09T14:36:46.945Z,3.27
2024-01-09T14:39:14.523Z,3.60
2024-01-09T14:41:42.303Z,3.70
2024-01-09T14:44:09.965Z,3.40
2024-01-09T14:46:37.716Z,3.33
2024-01-09T14:49:08.312Z,4.57
2024-01-09T14:51:36.623Z,4.37
2024-01-09T14:54:04.386Z,3.30
2024-01-09T14:56:32.017Z,3.60
2024-01-09T14:58:59.610Z,3.23
2024-01-09T15:01:27.341Z,3.53
2024-01-09T15:03:55.011Z,3.77
2024-01-09T15:06:23.998Z,3.83
2024-01-09T15:08:51.566Z,4.20
2024-01-09T15:11:19.226Z,4.23
2024-01-09T15:13:46.890Z,4.00
2024-01-09T15:16:14.522Z,4.73
2024-01-09T15:18:42.129Z,3.40
2024-01-09T15:21:10.287Z,4.13
2024-01-09T15:23:38.034Z,3.90
2024-01-09T15:26:05.746Z,3.23
2024-01-09T15:28:33.394Z,4.63
2024-01-09T15:31:01.118Z,3.63
2024-01-09T15:33:28.779Z,4.47
2024-01-09T15:35:56.507Z,4.50
2024-01-09T15:38:24.146Z,3.63
2024-01-09T15:40:51.799Z,3.53
2024-01-09T15:43:19.367Z,4.40
2024-01-09T15:45:46.957Z,4.33
2024-01-09T15:48:14.599Z,4.40
2024-01-09T15:50:42.252Z,4.83
2024-01-09T15:53:09.863Z,4.50
2024-01-09T15:55:37.567Z,3.43
2024-01-09T15:58:05.383Z,4.90
2024-01-09T16:00:33.035Z,4.73
2024-01-09T16:03:00.681Z,3.97
2024-01-09T16:05:28.376Z,4.87
2024-01-09T16:07:56.042Z,3.83
2024-01-09T16:10:23.867Z,4.27
2024-01-09T16:12:51.463Z,3.93
2024-01-09T16:15:19.173Z,5.00
2024-01-09T16:17:46.861Z,5.10
2024-01-09T16:20:14.628Z,4.10
2024-01-09T16:22:42.265Z,5.17
2024-01-09T16:25:10.023Z,4.97
2024-01-09T16:27:37.588Z,4.63
2024-01-09T16:30:05.531Z,5.93
2024-01-09T16:32:33.259Z,4.53
2024-01-09T16:35:01.174Z,5.20
2024-01-09T16:37:28.932Z,4.77
2024-01-09T16:39:56.530Z,5.60
2024-01-09T16:42:24.080Z,6.70
2024-01-09T16:44:51.714Z,5.37
2024-01-09T16:47:19.222Z,4.50
2024-01-09T16:49:46.932Z,3.00
2024-01-09T16:52:14.534Z,4.47
2024-01-09T16:54:42.168Z,5.03
2024-01-09T16:57:09.828Z,3.93
2024-01-09T16:59:37.393Z,5.03
2024-01-09T17:02:05.080Z,4.60
2024-01-09T17:04:32.753Z,4.03
2024-01-09T17:07:00.349Z,4.77
2024-01-09T17:09:27.992Z,4.30
2024-01-09T17:11:55.581Z,3.60
2024-01-09T17:14:23.425Z,4.37
2024-01-09T17:16:53.414Z,4.23
2024-01-09T17:19:21.350Z,3.90
2024-01-09T17:21:48.945Z,4.10
2024-01-09T17:24:16.582Z,4.73
2024-01-09T17:26:44.136Z,3.93
2024-01-09T17:29:11.835Z,3.70
2024-01-09T17:31:39.386Z,5.43
2024-01-09T17:34:07.124Z,4.27
2024-01-09T17:36:34.661Z,3.90
2024-01-09T17:39:02.297Z,4.27
2024-01-09T17:41:29.842Z,3.90
2024-01-09T17:43:57.655Z,4.80
2024-01-09T17:46:25.275Z,3.43
2024-01-09T17:48:52.938Z,3.57
2024-01-09T17:51:20.493Z,4.47
2024-01-09T17:53:48.142Z,4.30
2024-01-09T17:56:15.748Z,4.60
2024-01-09T17:58:43.407Z,4.03
2024-01-09T18:01:11.054Z,4.47
2024-01-09T18:03:38.819Z,4.53
2024-01-09T18:06:06.635Z,4.23
2024-01-09T18:08:35.875Z,4.43
2024-01-09T18:11:03.801Z,4.33
2024-01-09T18:13:31.609Z,5.27
2024-01-09T18:15:59.225Z,3.17
2024-01-09T18:18:26.879Z,4.63
2024-01-09T18:20:54.490Z,3.97
2024-01-09T18:23:22.129Z,4.30
2024-01-09T18:25:49.735Z,5.30
2024-01-09T18:28:26.481Z,5.33
2024-01-09T18:30:56.818Z,5.60
2024-01-09T18:33:24.495Z,4.13
2024-01-09T18:35:52.111Z,4.33
2024-01-09T18:38:19.711Z,4.37
2024-01-09T18:40:47.355Z,4.43
2024-01-09T18:43:14.901Z,4.97
2024-01-09T18:45:43.301Z,5.33
2024-01-09T18:48:11.031Z,3.60
2024-01-09T18:50:38.639Z,4.93
2024-01-09T18:53:06.343Z,4.90
2024-01-09T18:55:34.009Z,6.20
2024-01-09T18:58:01.603Z,4.30
2024-01-09T19:00:29.188Z,6.27
2024-01-09T19:02:56.826Z,5.67
2024-01-09T19:05:24.679Z,5.53
2024-01-09T19:07:52.359Z,5.70
2024-01-09T19:10:19.914Z,4.30
2024-01-09T19:12:47.933Z,5.17
2024-01-09T19:15:15.539Z,5.37
2024-01-09T19:17:43.303Z,6.67
2024-01-09T19:20:12.574Z,5.77
2024-01-09T19:22:40.326Z,5.63
2024-01-09T19:25:08.122Z,5.03
2024-01-09T19:27:36.022Z,5.30
2024-01-09T19:30:03.584Z,5.53
2024-01-09T19:32:31.330Z,6.43
2024-01-09T19:34:58.966Z,6.53
2024-01-09T19:37:26.642Z,5.97
2024-01-09T19:39:54.247Z,7.00
2024-01-09T19:42:21.818Z,7.07
2024-01-09T19:44:49.392Z,5.77
2024-01-09T19:47:17.152Z,5.30
2024-01-09T19:49:44.776Z,3.87
2024-01-09T19:52:12.410Z,4.30
2024-01-09T19:54:39.902Z,6.20
2024-01-09T19:57:07.482Z,4.73
2024-01-09T19:59:36.179Z,6.77
2024-01-09T20:02:04.829Z,5.20
2024-01-09T20:04:32.468Z,7.10
2024-01-09T20:07:00.208Z,6.10
2024-01-09T20:09:27.781Z,5.00
2024-01-09T20:11:56.137Z,5.97
2024-01-09T20:14:23.711Z,5.10
2024-01-09T20:16:51.624Z,4.70
2024-01-09T20:19:19.405Z,7.33
2024-01-09T20:21:47.014Z,6.03
2024-01-09T20:24:14.592Z,6.07
2024-01-09T20:26:43.288Z,6.67
2024-01-09T20:29:10.909Z,5.20
2024-01-09T20:31:38.895Z,7.50
2024-01-09T20:34:06.718Z,5.00
2024-01-09T20:36:34.322Z,5.37
2024-01-09T20:39:02.811Z,5.57
2024-01-09T20:41:31.299Z,5.83
2024-01-09T20:44:02.793Z,7.73
2024-01-09T20:46:31.372Z,6.83
2024-01-09T20:48:59.547Z,5.27
2024-01-09T20:51:27.172Z,7.23
2024-01-09T20:53:54.725Z,5.77
2024-01-09T20:56:22.361Z,6.20
2024-01-09T20:58:49.991Z,7.60
2024-01-09T21:01:17.752Z,6.00
2024-01-09T21:03:45.449Z,8.10
2024-01-09T21:06:13.112Z,5.50
2024-01-09T21:08:40.696Z,6.23
2024-01-09T21:11:08.301Z,7.20
2024-01-09T21:13:36.024Z,5.83
2024-01-09T21:16:03.580Z,6.97
2024-01-09T21:18:31.276Z,7.23
2024-01-09T21:20:59.032Z,7.93
2024-01-09T21:23:32.007Z,6.20
2024-01-09T21:26:05.860Z,4.67
2024-01-09T21:28:33.653Z,5.80
2024-01-09T21:31:01.295Z,7.33
2024-01-09T21:33:28.876Z,8.13
2024-01-09T21:35:56.500Z,8.47
2024-01-09T21:38:24.107Z,5.80
2024-01-09T21:40:58.072Z,7.57
2024-01-09T21:43:26.890Z,7.30
2024-01-09T21:45:54.625Z,7.80
2024-01-09T21:48:22.290Z,6.70
2024-01-09T21:50:49.987Z,7.03
2024-01-09T21:53:17.760Z,5.93
2024-01-09T21:55:45.438Z,6.60
2024-01-09T21:58:13.040Z,6.30
2024-01-09T22:00:40.625Z,6.93
2024-01-09T22:03:12.297Z,7.70
2024-01-09T22:05:43.193Z,7.03
2024-01-09T22:08:12.340Z,6.57
2024-01-09T22:10:40.081Z,5.00
2024-01-09T22:13:07.842Z,5.90
2024-01-09T22:15:35.466Z,7.67
2024-01-09T22:18:03.266Z,6.70
2024-01-09T22:20:31.026Z,7.03
2024-01-09T22:22:58.943Z,5.33
2024-01-09T22:25:26.508Z,6.90
2024-01-09T22:27:54.143Z,7.47
2024-01-09T22:30:21.873Z,6.80
2024-01-09T22:32:49.712Z,6.60
2024-01-09T22:35:17.364Z,8.83
2024-01-09T22:37:45.091Z,6.20
2024-01-09T22:40:12.964Z,7.43
2024-01-09T22:42:40.697Z,6.53
2024-01-09T22:45:08.473Z,7.13
2024-01-09T22:47:36.100Z,6.57
2024-01-09T22:50:03.861Z,8.60
2024-01-09T22:52:31.906Z,6.43
2024-01-09T22:54:59.569Z,6.00
2024-01-09T22:57:27.314Z,6.10
2024-01-09T22:59:54.829Z,5.00
2024-01-09T23:02:22.510Z,5.67
2024-01-09T23:04:50.201Z,6.37
2024-01-09T23:07:17.852Z,5.23
2024-01-09T23:09:45.362Z,6.97
2024-01-09T23:12:13.016Z,5.93
2024-01-09T23:14:40.814Z,5.37
2024-01-09T23:17:08.521Z,4.80
2024-01-09T23:19:36.152Z,5.50
2024-01-09T23:22:03.812Z,4.87
2024-01-09T23:24:33.291Z,5.80
2024-01-09T23:27:01.178Z,6.57
2024-01-09T23:29:28.775Z,6.57
2024-01-09T23:31:56.543Z,5.37
2024-01-09T23:34:24.144Z,7.27
2024-01-09T23:36:51.776Z,6.60
2024-01-09T23:39:19.365Z,5.83
2024-01-09T23:41:47.116Z,5.70
2024-01-09T23:44:14.950Z,6.23
2024-01-09T23:46:42.636Z,5.77
2024-01-09T23:49:10.310Z,5.30
2024-01-09T23:51:37.927Z,6.20
2024-01-09T23:54:05.706Z,5.90
2024-01-09T23:56:33.508Z,5.83
2024-01-09T23:59:01.187Z,5.07
